Terminal Aerodrome Forecast
Issued by NWS

Home | Current Version | Previous Version | Text Only | Print | Product List | Glossary On
Versions: 1 2 3 4 5 6 7 8 9 10 11 12 13 14 15 16 17 18 19 20 21 22 23 24
929
FTUS46 KSEW 101209 AAA
TAFHQM
TAF AMD
KHQM 101209Z 1012/1112 VRB05KT P6SM VCSH FEW028 SCT040 SCT070
      TEMPO 1012/1015 5SM -SHRA BR FEW028 BKN040 OVC070
     FM101500 14010KT 4SM -SHRA BR SCT025 OVC040
     FM101800 17015G25KT 3SM RA BR SCT009 OVC025
     FM102100 21013G22KT 6SM -SHRA BR BKN025 OVC040
     FM110900 23012KT P6SM -SHRA BKN025 OVC050=

USA.gov is the U.S. government's official web portal to all federal, state and local government web resources and services.